createdAt,value
2019-02-02T00:00:48.669Z,69.64
2019-02-02T00:03:20.352Z,69.60
2019-02-02T00:05:52.142Z,69.52
2019-02-02T00:08:23.831Z,69.28
2019-02-02T00:10:55.514Z,69.07
2019-02-02T00:13:27.187Z,69.11
2019-02-02T00:15:59.752Z,69.21
2019-02-02T00:18:31.347Z,69.35
2019-02-02T00:21:04.369Z,69.10
2019-02-02T00:23:36.054Z,68.92
2019-02-02T00:26:07.769Z,68.70
2019-02-02T00:28:39.360Z,68.75
2019-02-02T00:31:10.984Z,68.72
2019-02-02T00:33:42.636Z,68.72
2019-02-02T00:36:14.255Z,68.57
2019-02-02T00:38:45.942Z,68.73
2019-02-02T00:41:17.566Z,68.64
2019-02-02T00:43:49.237Z,68.44
2019-02-02T00:46:20.854Z,68.48
2019-02-02T00:48:52.449Z,68.69
2019-02-02T00:51:24.103Z,68.77
2019-02-02T00:53:55.789Z,68.76
2019-02-02T00:56:27.480Z,69.30
2019-02-02T00:58:59.092Z,69.30
2019-02-02T01:01:30.958Z,69.20
2019-02-02T01:04:02.635Z,69.74
2019-02-02T01:06:34.317Z,69.99
2019-02-02T01:09:15.148Z,70.02
2019-02-02T01:11:46.835Z,70.01
2019-02-02T01:14:18.625Z,70.03
2019-02-02T01:16:50.334Z,69.64
2019-02-02T01:19:22.017Z,69.36
2019-02-02T01:21:53.706Z,69.34
2019-02-02T01:24:25.381Z,69.24
2019-02-02T01:26:57.141Z,69.13
2019-02-02T01:29:29.091Z,69.24
2019-02-02T01:32:00.978Z,69.00
2019-02-02T01:34:32.665Z,68.89
2019-02-02T01:37:04.365Z,68.74
2019-02-02T01:39:36.065Z,68.79
2019-02-02T01:42:07.757Z,68.57
2019-02-02T01:44:39.457Z,68.78
2019-02-02T01:47:11.153Z,68.92
2019-02-02T01:49:42.840Z,68.69
2019-02-02T01:52:14.559Z,68.90
2019-02-02T01:54:46.244Z,68.81
2019-02-02T01:57:18.930Z,69.04
2019-02-02T01:59:50.521Z,69.10
2019-02-02T02:02:22.230Z,69.29
2019-02-02T02:04:53.904Z,69.50
2019-02-02T02:07:25.531Z,69.66
2019-02-02T02:09:57.218Z,69.77
2019-02-02T02:12:29.040Z,69.55
2019-02-02T02:15:00.914Z,69.78
2019-02-02T02:17:34.102Z,69.84
2019-02-02T02:20:06.127Z,69.86
2019-02-02T02:22:41.220Z,69.63
2019-02-02T02:25:13.169Z,69.77
2019-02-02T02:27:44.958Z,69.77
2019-02-02T02:30:21.799Z,69.88
2019-02-02T02:32:54.489Z,69.78
2019-02-02T02:35:26.163Z,70.00
2019-02-02T02:37:57.816Z,69.96
2019-02-02T02:40:29.582Z,70.00
2019-02-02T02:43:01.254Z,69.83
2019-02-02T02:45:32.953Z,69.84
2019-02-02T02:48:04.694Z,69.99
2019-02-02T02:50:37.374Z,70.08
2019-02-02T02:53:09.077Z,69.99
2019-02-02T02:55:40.746Z,70.09
2019-02-02T02:58:12.443Z,70.10
2019-02-02T03:00:44.120Z,70.06
2019-02-02T03:03:15.824Z,70.38
2019-02-02T03:05:47.522Z,70.31
2019-02-02T03:08:19.138Z,70.20
2019-02-02T03:10:50.833Z,70.46
2019-02-02T03:13:22.519Z,70.42
2019-02-02T03:15:54.180Z,70.37
2019-02-02T03:18:25.820Z,70.67
2019-02-02T03:20:57.820Z,70.64
2019-02-02T03:23:30.522Z,70.81
2019-02-02T03:26:02.172Z,70.86
2019-02-02T03:28:34.096Z,70.92
2019-02-02T03:31:06.042Z,71.04
2019-02-02T03:33:37.822Z,70.74
2019-02-02T03:36:09.443Z,70.60
2019-02-02T03:38:41.182Z,70.58
2019-02-02T03:41:12.867Z,70.97
2019-02-02T03:43:44.590Z,70.84
2019-02-02T03:46:16.264Z,70.87
2019-02-02T03:48:47.949Z,70.55
2019-02-02T03:51:19.656Z,71.20
2019-02-02T03:53:51.281Z,71.30
2019-02-02T03:56:22.947Z,71.07
2019-02-02T03:59:06.231Z,71.12
2019-02-02T04:01:30.155Z,71.43
2019-02-02T04:04:01.750Z,71.39
2019-02-02T04:06:33.422Z,71.61
2019-02-02T04:09:07.490Z,71.68
2019-02-02T04:11:43.298Z,71.57
2019-02-02T04:14:13.434Z,71.51
2019-02-02T04:16:45.132Z,71.51
2019-02-02T04:19:17.719Z,71.44
2019-02-02T04:21:49.391Z,71.50
2019-02-02T04:24:21.010Z,71.57
2019-02-02T04:26:52.776Z,71.76
2019-02-02T04:29:24.466Z,71.70
2019-02-02T04:31:56.074Z,71.89
2019-02-02T04:34:27.842Z,71.67
2019-02-02T04:36:59.545Z,71.74
2019-02-02T04:39:31.294Z,71.66
2019-02-02T04:42:02.968Z,71.47
2019-02-02T04:44:34.652Z,71.26
2019-02-02T04:47:06.308Z,71.59
2019-02-02T04:49:38.120Z,71.41
2019-02-02T04:52:09.898Z,71.35
2019-02-02T04:54:41.517Z,71.65
2019-02-02T04:57:13.115Z,71.61
2019-02-02T04:59:44.813Z,71.67
2019-02-02T05:02:16.503Z,71.57
2019-02-02T05:04:48.226Z,71.52
2019-02-02T05:07:19.823Z,71.54
2019-02-02T05:09:51.506Z,71.45
2019-02-02T05:12:23.216Z,71.36
2019-02-02T05:14:54.903Z,71.46
2019-02-02T05:17:26.508Z,71.49
2019-02-02T05:19:58.241Z,71.32
2019-02-02T05:22:30.237Z,72.27
2019-02-02T05:25:02.145Z,71.73
2019-02-02T05:27:34.084Z,71.85
2019-02-02T05:30:08.085Z,72.75
2019-02-02T05:32:39.753Z,72.65
2019-02-02T05:35:11.373Z,72.65
2019-02-02T05:37:43.136Z,73.33
2019-02-02T05:40:15.937Z,73.31
2019-02-02T05:42:47.622Z,73.08
2019-02-02T05:45:20.169Z,73.66
2019-02-02T05:47:52.414Z,73.20
2019-02-02T05:50:24.214Z,73.35
2019-02-02T05:52:55.834Z,73.21
2019-02-02T05:55:27.447Z,73.37
2019-02-02T05:57:59.050Z,73.22
2019-02-02T06:00:43.807Z,73.05
2019-02-02T06:03:15.577Z,72.80
2019-02-02T06:05:47.272Z,72.81
2019-02-02T06:08:18.878Z,72.97
2019-02-02T06:10:50.553Z,72.95
2019-02-02T06:13:22.216Z,72.94
2019-02-02T06:15:53.810Z,72.57
2019-02-02T06:18:25.431Z,72.86
2019-02-02T06:20:57.279Z,72.50
2019-02-02T06:23:29.027Z,72.51
2019-02-02T06:26:01.074Z,72.98
2019-02-02T06:28:32.681Z,73.48
2019-02-02T06:31:04.381Z,73.94
2019-02-02T06:33:36.004Z,73.83
2019-02-02T06:36:07.704Z,74.01
2019-02-02T06:38:39.378Z,74.26
2019-02-02T06:41:11.088Z,74.54
2019-02-02T06:43:42.764Z,74.62
2019-02-02T06:46:14.387Z,74.67
2019-02-02T06:48:46.072Z,74.52
2019-02-02T06:51:17.762Z,74.31
2019-02-02T06:53:49.500Z,74.27
2019-02-02T06:56:21.168Z,74.23
2019-02-02T06:58:52.834Z,74.16
2019-02-02T07:01:24.510Z,74.06
2019-02-02T07:03:56.118Z,74.09
2019-02-02T07:06:27.931Z,74.07
2019-02-02T07:08:59.623Z,74.06
2019-02-02T07:11:31.248Z,74.01
2019-02-02T07:14:02.862Z,73.81
2019-02-02T07:16:34.472Z,73.84
2019-02-02T07:19:06.137Z,73.57
2019-02-02T07:21:37.759Z,73.57
2019-02-02T07:24:10.089Z,73.59
2019-02-02T07:26:42.666Z,73.30
2019-02-02T07:29:14.352Z,73.17
2019-02-02T07:31:46.094Z,73.00
2019-02-02T07:34:18.279Z,72.55
2019-02-02T07:36:50.278Z,72.26
2019-02-02T07:39:21.985Z,72.27
2019-02-02T07:41:55.699Z,72.22
2019-02-02T07:44:28.600Z,71.98
2019-02-02T07:47:00.608Z,71.66
2019-02-02T07:49:32.394Z,71.66
2019-02-02T07:52:04.287Z,71.73
2019-02-02T07:54:35.948Z,71.59
2019-02-02T07:57:07.580Z,71.41
2019-02-02T07:59:39.742Z,71.54
2019-02-02T08:02:11.455Z,71.61
2019-02-02T08:04:43.186Z,71.35
2019-02-02T08:07:14.985Z,71.38
2019-02-02T08:09:46.670Z,71.07
2019-02-02T08:12:19.579Z,70.76
2019-02-02T08:14:51.569Z,70.62
2019-02-02T08:17:23.379Z,70.51
2019-02-02T08:19:55.079Z,70.74
2019-02-02T08:22:26.771Z,70.59
2019-02-02T08:24:58.606Z,70.44
2019-02-02T08:27:30.352Z,70.13
2019-02-02T08:30:02.297Z,70.14
2019-02-02T08:32:34.227Z,70.21
2019-02-02T08:35:06.126Z,69.95
2019-02-02T08:37:37.827Z,69.78
2019-02-02T08:40:10.923Z,69.82
2019-02-02T08:42:42.666Z,69.46
2019-02-02T08:45:15.373Z,68.97
2019-02-02T08:47:47.075Z,68.65
2019-02-02T08:50:27.478Z,68.15
2019-02-02T08:52:59.389Z,68.05
2019-02-02T08:55:31.494Z,68.01
2019-02-02T08:58:07.586Z,67.54
2019-02-02T09:00:39.547Z,67.33
2019-02-02T09:03:11.253Z,67.28
2019-02-02T09:05:42.907Z,67.21
2019-02-02T09:08:14.513Z,67.34
2019-02-02T09:10:46.146Z,67.18
2019-02-02T09:13:18.018Z,67.12
2019-02-02T09:15:49.711Z,66.87
2019-02-02T09:18:21.358Z,66.71
2019-02-02T09:20:52.959Z,66.63
2019-02-02T09:23:24.644Z,67.14
2019-02-02T09:25:56.247Z,66.78
2019-02-02T09:28:28.109Z,66.08
2019-02-02T09:30:59.803Z,66.18
2019-02-02T09:33:31.725Z,65.88
2019-02-02T09:36:03.317Z,65.92
2019-02-02T09:38:35.164Z,65.68
2019-02-02T09:41:10.371Z,65.27
2019-02-02T09:43:44.311Z,65.11
2019-02-02T09:46:16.035Z,64.34
2019-02-02T09:48:48.472Z,63.77
2019-02-02T09:51:20.082Z,63.31
2019-02-02T09:53:53.796Z,62.58
2019-02-02T09:56:25.555Z,61.21
2019-02-02T09:58:59.414Z,59.49
2019-02-02T10:01:31.886Z,58.56
2019-02-02T10:04:04.036Z,56.18
2019-02-02T10:06:36.498Z,53.18
2019-02-02T10:09:09.909Z,50.46
2019-02-02T10:11:42.282Z,50.12
2019-02-02T10:14:14.143Z,50.97
2019-02-02T10:16:45.860Z,49.44
2019-02-02T10:19:17.993Z,44.38
2019-02-02T10:21:49.937Z,38.08
2019-02-02T10:24:22.047Z,37.83
2019-02-02T10:26:53.799Z,39.53
2019-02-02T10:29:25.436Z,43.25
2019-02-02T10:31:57.030Z,44.74
2019-02-02T10:34:29.147Z,46.38
2019-02-02T10:37:00.987Z,47.93
2019-02-02T10:39:32.786Z,51.48
2019-02-02T10:42:04.379Z,53.90
2019-02-02T10:44:36.025Z,55.68
2019-02-02T10:47:07.710Z,56.15
2019-02-02T10:49:39.415Z,56.28
2019-02-02T10:52:11.078Z,56.23
2019-02-02T10:54:43.763Z,56.36
2019-02-02T10:57:15.372Z,57.62
2019-02-02T10:59:49.007Z,58.61
2019-02-02T11:02:20.295Z,58.41
2019-02-02T11:04:53.479Z,56.78
2019-02-02T11:07:25.470Z,57.25
2019-02-02T11:09:57.054Z,56.27
2019-02-02T11:12:30.603Z,55.81
2019-02-02T11:15:05.683Z,57.55
2019-02-02T11:17:38.992Z,58.06
2019-02-02T11:20:13.910Z,57.30
2019-02-02T11:22:46.078Z,57.49
2019-02-02T11:25:18.064Z,57.92
2019-02-02T11:27:50.101Z,58.14
2019-02-02T11:30:21.991Z,56.59
2019-02-02T11:32:54.452Z,55.79
2019-02-02T11:35:26.388Z,56.02
2019-02-02T11:37:58.071Z,56.86
2019-02-02T11:40:32.710Z,58.32
2019-02-02T11:43:05.077Z,58.76
2019-02-02T11:45:37.294Z,59.58
2019-02-02T11:48:09.331Z,59.30
2019-02-02T11:50:41.181Z,59.59
2019-02-02T11:53:13.220Z,59.84
2019-02-02T11:55:45.132Z,60.24
2019-02-02T11:58:16.938Z,60.27
2019-02-02T12:00:48.815Z,59.54
2019-02-02T12:03:21.974Z,57.85
2019-02-02T12:05:54.330Z,58.24
2019-02-02T12:08:26.163Z,58.90
2019-02-02T12:10:58.920Z,58.70
2019-02-02T12:13:30.800Z,58.39
2019-02-02T12:16:02.977Z,57.96
2019-02-02T12:18:34.982Z,57.52
2019-02-02T12:21:06.831Z,57.54
2019-02-02T12:23:38.444Z,57.78
2019-02-02T12:26:10.068Z,58.94
2019-02-02T12:28:41.673Z,58.86
2019-02-02T12:31:13.357Z,58.52
2019-02-02T12:33:44.969Z,58.55
2019-02-02T12:36:16.590Z,58.33
2019-02-02T12:38:48.232Z,59.07
2019-02-02T12:41:19.945Z,59.25
2019-02-02T12:43:51.559Z,59.19
2019-02-02T12:46:23.244Z,58.60
2019-02-02T12:48:54.853Z,58.85
2019-02-02T12:51:26.568Z,59.39
2019-02-02T12:53:58.259Z,59.87
2019-02-02T12:56:29.998Z,60.48
2019-02-02T12:59:01.862Z,60.23
2019-02-02T13:01:34.935Z,60.36
2019-02-02T13:04:08.825Z,60.23
2019-02-02T13:06:41.838Z,61.10
2019-02-02T13:09:13.674Z,61.65
2019-02-02T13:11:45.595Z,61.57
2019-02-02T13:14:17.494Z,62.18
2019-02-02T13:16:50.163Z,61.89
2019-02-02T13:19:22.428Z,61.42
2019-02-02T13:21:54.260Z,59.90
2019-02-02T13:24:25.970Z,59.17
2019-02-02T13:26:57.756Z,60.41
2019-02-02T13:29:29.448Z,61.18
2019-02-02T13:32:01.148Z,60.96
2019-02-02T13:34:33.364Z,61.23
2019-02-02T13:37:06.566Z,61.31
2019-02-02T13:39:39.306Z,62.23
2019-02-02T13:42:11.587Z,62.46
2019-02-02T13:44:43.566Z,62.33
2019-02-02T13:47:15.302Z,62.05
2019-02-02T13:49:47.136Z,61.98
2019-02-02T13:52:19.167Z,62.06
2019-02-02T13:54:50.968Z,62.40
2019-02-02T13:57:22.617Z,62.99
2019-02-02T13:59:54.420Z,63.55
2019-02-02T14:02:26.069Z,63.88
2019-02-02T14:04:57.930Z,64.17
2019-02-02T14:07:30.366Z,64.42
2019-02-02T14:10:02.333Z,64.50
2019-02-02T14:12:35.207Z,64.58
2019-02-02T14:15:07.739Z,64.74
2019-02-02T14:17:39.670Z,64.80
2019-02-02T14:20:12.614Z,64.88
2019-02-02T14:22:44.453Z,64.96
2019-02-02T14:25:16.191Z,65.04
2019-02-02T14:27:49.573Z,65.21
2019-02-02T14:30:23.724Z,65.26
2019-02-02T14:32:55.757Z,65.46
2019-02-02T14:35:29.452Z,66.03
2019-02-02T14:38:01.574Z,65.59
2019-02-02T14:40:33.710Z,65.26
2019-02-02T14:43:06.785Z,65.17
2019-02-02T14:45:38.616Z,65.39
2019-02-02T14:48:10.314Z,65.36
2019-02-02T14:50:43.550Z,65.83
2019-02-02T14:53:16.774Z,66.14
2019-02-02T14:55:49.115Z,65.89
2019-02-02T14:58:21.287Z,66.50
2019-02-02T15:00:54.101Z,67.15
2019-02-02T15:03:26.563Z,67.23
2019-02-02T15:05:58.874Z,67.59
2019-02-02T15:08:30.588Z,68.31
2019-02-02T15:11:02.382Z,67.62
2019-02-02T15:13:34.147Z,67.34
2019-02-02T15:16:05.850Z,67.85
2019-02-02T15:18:37.796Z,68.72
2019-02-02T15:21:10.927Z,68.28
2019-02-02T15:23:45.404Z,68.22
2019-02-02T15:26:16.423Z,68.27
2019-02-02T15:28:48.168Z,67.97
2019-02-02T15:31:19.901Z,68.09
2019-02-02T15:33:52.057Z,68.40
2019-02-02T15:36:23.694Z,68.76
2019-02-02T15:38:55.412Z,69.51
2019-02-02T15:41:27.022Z,69.79
2019-02-02T15:43:59.193Z,70.02
2019-02-02T15:46:30.916Z,69.95
2019-02-02T15:49:02.779Z,70.03
2019-02-02T15:51:40.287Z,70.27
2019-02-02T15:54:10.627Z,70.45
2019-02-02T15:56:44.053Z,70.52
2019-02-02T15:59:17.394Z,70.88
2019-02-02T16:01:52.208Z,71.16
2019-02-02T16:04:24.683Z,71.25
2019-02-02T16:06:57.099Z,71.15
2019-02-02T16:09:29.321Z,71.81
2019-02-02T16:12:01.373Z,71.75
2019-02-02T16:14:33.485Z,71.41
2019-02-02T16:17:05.353Z,71.36
2019-02-02T16:19:37.166Z,71.59
2019-02-02T16:22:08.802Z,71.72
2019-02-02T16:24:42.474Z,71.54
2019-02-02T16:27:14.691Z,71.50
2019-02-02T16:29:46.944Z,71.71
2019-02-02T16:32:19.954Z,71.37
2019-02-02T16:34:51.801Z,71.15
2019-02-02T16:37:23.394Z,70.99
2019-02-02T16:39:55.122Z,70.63
2019-02-02T16:42:26.756Z,71.04
2019-02-02T16:44:58.454Z,71.10
2019-02-02T16:47:30.308Z,71.28
2019-02-02T16:50:02.240Z,71.70
2019-02-02T16:52:33.949Z,72.12
2019-02-02T16:55:06.639Z,72.49
2019-02-02T16:57:38.328Z,72.77
2019-02-02T17:00:16.517Z,73.05
2019-02-02T17:02:48.206Z,73.51
2019-02-02T17:05:19.923Z,73.84
2019-02-02T17:07:51.688Z,74.21
2019-02-02T17:10:26.679Z,73.88
2019-02-02T17:13:15.381Z,74.11
2019-02-02T17:15:47.179Z,74.73
2019-02-02T17:18:19.760Z,74.05
2019-02-02T17:20:52.673Z,73.57
2019-02-02T17:23:25.432Z,73.67
2019-02-02T17:25:59.458Z,74.48
2019-02-02T17:28:31.556Z,74.40
2019-02-02T17:31:04.237Z,74.90
2019-02-02T17:33:37.037Z,75.26
2019-02-02T17:36:12.182Z,75.07
2019-02-02T17:38:44.828Z,75.30
2019-02-02T17:41:17.407Z,75.55
2019-02-02T17:43:49.449Z,75.54
2019-02-02T17:46:21.708Z,75.46
2019-02-02T17:48:53.497Z,75.93
2019-02-02T17:51:27.190Z,75.71
2019-02-02T17:53:58.896Z,76.02
2019-02-02T17:56:30.633Z,76.06
2019-02-02T17:59:02.456Z,75.77
2019-02-02T18:01:34.267Z,75.77
2019-02-02T18:04:09.492Z,75.69
2019-02-02T18:06:43.459Z,75.51
2019-02-02T18:09:17.575Z,75.47
2019-02-02T18:11:51.852Z,75.77
2019-02-02T18:14:27.438Z,76.11
2019-02-02T18:17:00.361Z,76.36
2019-02-02T18:19:32.546Z,76.75
2019-02-02T18:22:04.364Z,76.96
2019-02-02T18:24:36.786Z,76.90
2019-02-02T18:27:10.168Z,77.03
2019-02-02T18:29:42.259Z,76.96
2019-02-02T18:32:14.021Z,77.17
2019-02-02T18:34:51.142Z,77.06
2019-02-02T18:37:19.118Z,77.56
2019-02-02T18:39:50.902Z,77.65
2019-02-02T18:42:22.600Z,77.96
2019-02-02T18:44:54.432Z,78.17
2019-02-02T18:47:26.174Z,78.18
2019-02-02T18:49:57.853Z,77.65
2019-02-02T18:52:29.465Z,78.10
2019-02-02T18:55:01.132Z,77.93
2019-02-02T18:57:32.890Z,77.90
2019-02-02T19:00:06.242Z,77.77
2019-02-02T19:02:41.121Z,77.78
2019-02-02T19:05:13.140Z,77.71
2019-02-02T19:07:45.072Z,77.68
2019-02-02T19:10:22.121Z,77.46
2019-02-02T19:12:54.468Z,77.37
2019-02-02T19:15:26.346Z,77.20
2019-02-02T19:17:58.039Z,77.34
2019-02-02T19:20:29.778Z,77.16
2019-02-02T19:23:01.690Z,77.35
2019-02-02T19:25:34.915Z,77.59
2019-02-02T19:28:08.150Z,77.16
2019-02-02T19:30:39.928Z,77.05
2019-02-02T19:33:12.631Z,77.02
2019-02-02T19:35:44.409Z,76.77
2019-02-02T19:38:17.681Z,76.58
2019-02-02T19:40:51.368Z,76.36
2019-02-02T19:43:26.694Z,76.86
2019-02-02T19:45:59.444Z,76.54
2019-02-02T19:48:31.941Z,76.67
2019-02-02T19:51:07.367Z,76.28
2019-02-02T19:53:39.324Z,76.49
2019-02-02T19:56:11.795Z,76.32
2019-02-02T19:58:43.585Z,76.63
2019-02-02T20:01:15.291Z,76.55
2019-02-02T20:03:47.030Z,76.73
2019-02-02T20:06:19.727Z,77.11
2019-02-02T20:08:51.457Z,77.38
2019-02-02T20:11:23.172Z,76.69
2019-02-02T20:13:55.147Z,76.83
2019-02-02T20:16:27.347Z,76.37
2019-02-02T20:18:59.059Z,76.34
2019-02-02T20:21:33.900Z,76.53
2019-02-02T20:24:08.903Z,76.32
2019-02-02T20:26:44.252Z,76.11
2019-02-02T20:29:16.357Z,76.45
2019-02-02T20:31:48.741Z,76.17
2019-02-02T20:34:20.809Z,75.91
2019-02-02T20:36:53.464Z,76.13
2019-02-02T20:39:25.431Z,76.29
2019-02-02T20:41:59.869Z,76.26
2019-02-02T20:44:31.165Z,76.24
2019-02-02T20:47:03.271Z,76.10
2019-02-02T20:49:35.010Z,76.08
2019-02-02T20:52:07.094Z,76.15
2019-02-02T20:54:38.805Z,76.11
2019-02-02T20:57:11.000Z,76.06
2019-02-02T20:59:43.843Z,76.26
2019-02-02T21:02:16.008Z,76.04
2019-02-02T21:04:48.175Z,75.70
2019-02-02T21:07:20.059Z,75.92
2019-02-02T21:09:51.972Z,76.26
2019-02-02T21:12:23.675Z,76.31
2019-02-02T21:14:56.039Z,76.26
2019-02-02T21:17:27.825Z,76.12
2019-02-02T21:20:00.000Z,76.12
2019-02-02T21:22:32.129Z,75.89
2019-02-02T21:25:06.866Z,75.92
2019-02-02T21:27:38.604Z,76.02
2019-02-02T21:30:14.129Z,75.86
2019-02-02T21:32:46.790Z,75.98
2019-02-02T21:35:19.651Z,75.97
2019-02-02T21:37:53.951Z,76.06
2019-02-02T21:40:28.839Z,75.92
2019-02-02T21:43:00.580Z,76.00
2019-02-02T21:45:32.441Z,75.38
2019-02-02T21:48:05.557Z,75.24
2019-02-02T21:50:40.123Z,75.18
2019-02-02T21:53:12.242Z,75.84
2019-02-02T21:55:43.942Z,76.02
2019-02-02T21:58:17.069Z,76.95
2019-02-02T22:00:49.276Z,76.41
2019-02-02T22:03:21.280Z,76.88
2019-02-02T22:05:53.256Z,76.30
2019-02-02T22:08:25.477Z,76.17
2019-02-02T22:10:57.248Z,76.11
2019-02-02T22:13:28.961Z,75.92
2019-02-02T22:16:00.702Z,75.70
2019-02-02T22:18:32.438Z,75.72
2019-02-02T22:21:04.333Z,75.88
2019-02-02T22:23:35.997Z,76.20
2019-02-02T22:26:07.615Z,75.88
2019-02-02T22:28:39.215Z,76.08
2019-02-02T22:31:11.076Z,76.58
2019-02-02T22:33:42.677Z,76.68
2019-02-02T22:36:14.328Z,77.03
2019-02-02T22:38:45.989Z,76.76
2019-02-02T22:41:17.616Z,76.69
2019-02-02T22:43:49.210Z,76.94
2019-02-02T22:46:20.826Z,76.26
2019-02-02T22:48:52.432Z,75.64
2019-02-02T22:51:24.197Z,75.93
2019-02-02T22:53:56.073Z,75.75
2019-02-02T22:56:27.701Z,76.30
2019-02-02T22:58:59.363Z,76.01
2019-02-02T23:01:40.284Z,75.92
2019-02-02T23:04:55.369Z,75.78
2019-02-02T23:07:44.332Z,75.95
2019-02-02T23:11:02.608Z,76.42
2019-02-02T23:14:25.370Z,76.46
2019-02-02T23:16:57.033Z,75.87
2019-02-02T23:19:28.703Z,75.83
2019-02-02T23:22:00.577Z,75.83
2019-02-02T23:24:32.538Z,75.98
2019-02-02T23:27:04.385Z,75.86
2019-02-02T23:29:36.969Z,75.72
2019-02-02T23:32:09.444Z,75.80
2019-02-02T23:34:41.118Z,75.92
2019-02-02T23:37:12.773Z,76.27
2019-02-02T23:39:44.380Z,76.28
2019-02-02T23:42:16.038Z,75.98
2019-02-02T23:44:47.627Z,76.17
2019-02-02T23:47:19.222Z,76.46
2019-02-02T23:49:50.894Z,76.70
2019-02-02T23:52:22.473Z,76.59
2019-02-02T23:54:54.070Z,76.88
2019-02-02T23:57:25.741Z,76.40
2019-02-02T23:59:57.595Z,75.92
